Time;durP1;ratioP1;P1;durP2;ratioP2;P2;SDS_P1;SDS_P2;PMS_P1;PMS_P2;Temp;Humidity;BMP_temperature;BMP_pressure;BME280_temperature;BME280_humidity;BME280_pressure;Samples;Min_cycle;Max_cycle;Signal;HPM_P1;HPM_P2
2024/03/29 00:00:34;;;;;;;6.63;1.55;;;8.70;99.90;;;;;;5014921;28;20406;-78
2024/03/29 00:03:00;;;;;;;3.60;1.00;;;8.40;99.90;;;;;;5002797;28;20498;-78
2024/03/29 00:05:25;;;;;;;9.23;1.15;;;8.40;99.90;;;;;;5014322;28;20144;-78
2024/03/29 00:07:51;;;;;;;6.88;1.40;;;8.30;99.90;;;;;;4996356;28;20124;-78
2024/03/29 00:10:17;;;;;;;5.57;1.83;;;8.30;99.90;;;;;;4995718;28;20567;-78
2024/03/29 00:12:42;;;;;;;6.32;1.27;;;8.40;99.90;;;;;;5006082;28;20056;-77
2024/03/29 00:15:08;;;;;;;8.07;1.52;;;8.30;99.90;;;;;;5010880;28;20466;-78
2024/03/29 00:17:34;;;;;;;4.70;1.25;;;8.30;99.90;;;;;;5012190;28;20042;-78
2024/03/29 00:19:59;;;;;;;6.63;1.42;;;8.30;99.90;;;;;;5012522;28;20399;-77
2024/03/29 00:22:25;;;;;;;8.35;1.65;;;9.30;99.90;;;;;;5012579;28;20042;-78
2024/03/29 00:24:50;;;;;;;6.47;1.73;;;8.20;99.90;;;;;;5001036;28;20065;-78
2024/03/29 00:27:16;;;;;;;5.63;1.27;;;8.30;99.90;;;;;;5002862;28;20084;-78
2024/03/29 00:29:43;;;;;;;4.88;1.30;;;8.20;99.90;;;;;;5000528;28;20038;-78
2024/03/29 00:32:09;;;;;;;8.70;1.30;;;8.30;99.90;;;;;;5008198;28;20038;-78
2024/03/29 00:34:34;;;;;;;3.88;1.13;;;8.30;99.90;;;;;;5003798;28;20033;-78
2024/03/29 00:37:00;;;;;;;4.38;1.20;;;8.30;99.90;;;;;;5000957;28;20041;-78
2024/03/29 00:39:26;;;;;;;6.45;1.40;;;8.30;99.90;;;;;;5004566;28;20545;-78
2024/03/29 00:41:51;;;;;;;6.55;1.30;;;8.40;99.90;;;;;;4995670;28;20077;-78
2024/03/29 00:44:17;;;;;;;5.60;1.20;;;8.20;99.90;;;;;;5010664;28;20041;-78
2024/03/29 00:46:42;;;;;;;3.08;1.10;;;8.30;99.90;;;;;;5000463;28;20037;-78
2024/03/29 00:49:08;;;;;;;5.32;1.25;;;8.20;99.90;;;;;;5007227;28;20038;-78
2024/03/29 00:51:33;;;;;;;7.85;1.48;;;8.20;99.90;;;;;;5026005;28;20127;-78
2024/03/29 00:53:59;;;;;;;5.70;1.42;;;8.30;99.90;;;;;;5002318;28;20425;-78
2024/03/29 00:56:25;;;;;;;6.50;1.25;;;8.20;99.90;;;;;;5003596;28;20069;-78
2024/03/29 00:58:50;;;;;;;3.75;1.30;;;8.30;99.90;;;;;;5003582;28;20041;-78
2024/03/29 01:01:16;;;;;;;3.83;1.20;;;8.20;99.90;;;;;;5014502;28;20098;-78
2024/03/29 01:03:41;;;;;;;3.95;1.02;;;8.20;99.90;;;;;;5010983;28;20052;-77
2024/03/29 01:06:07;;;;;;;5.40;1.13;;;8.20;99.90;;;;;;4999535;28;20114;-77
2024/03/29 01:08:33;;;;;;;7.40;1.45;;;8.20;99.90;;;;;;4997300;28;20030;-78
2024/03/29 01:10:58;;;;;;;7.50;1.70;;;8.20;99.90;;;;;;5007150;28;20034;-78
2024/03/29 01:13:24;;;;;;;1.88;0.88;;;8.30;99.90;;;;;;5009071;28;20095;-78
2024/03/29 01:15:50;;;;;;;3.53;1.48;;;8.30;99.90;;;;;;4999180;28;20112;-78
2024/03/29 01:18:15;;;;;;;5.28;1.35;;;8.30;99.90;;;;;;5000681;28;20038;-78
2024/03/29 01:20:41;;;;;;;7.13;1.48;;;8.80;99.90;;;;;;4994748;28;20152;-78
2024/03/29 01:23:07;;;;;;;4.72;1.35;;;8.30;99.90;;;;;;5023506;28;20092;-77
2024/03/29 01:25:33;;;;;;;3.22;1.00;;;8.30;99.90;;;;;;5010690;28;20183;-77
2024/03/29 01:27:59;;;;;;;7.60;1.27;;;8.30;99.90;;;;;;5009636;28;20037;-78
2024/03/29 01:30:26;;;;;;;5.63;1.35;;;8.30;99.90;;;;;;5015845;28;20033;-77
2024/03/29 01:32:52;;;;;;;7.20;1.50;;;8.40;99.90;;;;;;5028754;28;20057;-77
2024/03/29 01:35:18;;;;;;;7.32;1.77;;;8.30;99.90;;;;;;5004582;28;20072;-78
2024/03/29 01:37:43;;;;;;;5.55;1.23;;;8.40;99.90;;;;;;4995212;28;20157;-78
2024/03/29 01:40:10;;;;;;;8.18;1.08;;;8.40;99.90;;;;;;4997386;28;20049;-77
2024/03/29 01:42:36;;;;;;;6.30;1.10;;;8.40;99.90;;;;;;5012871;28;20098;-79
2024/03/29 01:45:01;;;;;;;5.90;1.10;;;8.40;99.90;;;;;;4994421;28;20037;-79
2024/03/29 01:47:27;;;;;;;7.30;1.20;;;8.40;99.90;;;;;;4998182;28;20499;-77
2024/03/29 01:49:53;;;;;;;8.40;1.30;;;8.40;99.90;;;;;;4995001;28;20037;-77
2024/03/29 01:52:20;;;;;;;6.00;1.52;;;8.40;99.90;;;;;;5002354;28;22173;-77
2024/03/29 01:54:46;;;;;;;4.05;1.42;;;8.40;99.90;;;;;;5003176;28;20045;-77
2024/03/29 01:57:13;;;;;;;6.03;1.33;;;8.40;99.90;;;;;;5010344;28;20049;-78
2024/03/29 01:59:42;;;;;;;6.93;1.30;;;8.40;99.90;;;;;;5030757;28;20095;-78
2024/03/29 02:02:08;;;;;;;8.70;1.45;;;8.40;99.90;;;;;;5005240;28;20045;-77
2024/03/29 02:04:34;;;;;;;3.92;1.30;;;8.30;99.90;;;;;;5025328;28;20046;-77
2024/03/29 02:07:00;;;;;;;10.07;1.40;;;8.40;99.90;;;;;;5021583;28;20045;-77
2024/03/29 02:09:25;;;;;;;3.72;1.27;;;8.40;99.90;;;;;;5024300;28;20423;-77
2024/03/29 02:11:51;;;;;;;7.78;1.45;;;8.30;99.90;;;;;;5021471;28;20458;-77
2024/03/29 02:14:17;;;;;;;6.22;1.10;;;8.30;99.90;;;;;;5001536;28;20041;-77
2024/03/29 02:16:42;;;;;;;6.63;1.30;;;8.30;99.90;;;;;;5005880;28;20137;-78
2024/03/29 02:19:08;;;;;;;5.10;1.23;;;8.30;99.90;;;;;;5030010;28;20061;-78
2024/03/29 02:21:40;;;;;;;4.18;0.90;;;8.50;99.90;;;;;;5019005;28;20410;-78
2024/03/29 02:24:07;;;;;;;4.07;1.20;;;8.40;99.90;;;;;;5007632;28;20089;-77
2024/03/29 02:26:36;;;;;;;6.38;1.30;;;8.30;99.90;;;;;;4997576;28;20362;-78
2024/03/29 02:29:02;;;;;;;6.28;1.10;;;8.30;99.90;;;;;;5010773;28;20507;-77
2024/03/29 02:31:28;;;;;;;4.78;1.17;;;8.30;99.90;;;;;;4998169;28;20054;-77
2024/03/29 02:33:53;;;;;;;4.88;1.30;;;8.40;99.90;;;;;;5007363;28;20096;-77
2024/03/29 02:36:19;;;;;;;5.68;1.48;;;8.30;99.90;;;;;;4991864;28;20514;-78
2024/03/29 02:38:45;;;;;;;5.78;0.95;;;8.30;99.90;;;;;;5014518;28;20057;-78
2024/03/29 02:41:10;;;;;;;5.15;1.25;;;8.40;99.90;;;;;;5004560;28;20033;-77
2024/03/29 02:43:36;;;;;;;5.47;1.67;;;8.40;99.90;;;;;;5000871;28;20076;-77
2024/03/29 02:46:02;;;;;;;6.45;1.20;;;8.40;99.90;;;;;;5036190;28;21498;-78
2024/03/29 02:48:27;;;;;;;4.80;1.10;;;8.30;99.90;;;;;;5014861;28;20045;-78
2024/03/29 02:50:53;;;;;;;4.50;1.10;;;8.30;99.90;;;;;;5033859;28;20030;-77
2024/03/29 02:53:19;;;;;;;3.42;1.00;;;8.30;99.90;;;;;;5016372;28;20040;-77
2024/03/29 02:55:44;;;;;;;7.05;1.30;;;8.30;99.90;;;;;;5000171;28;20057;-77
2024/03/29 02:58:10;;;;;;;4.80;1.13;;;8.30;99.90;;;;;;5011548;28;20116;-77
2024/03/29 03:00:35;;;;;;;6.43;1.17;;;8.30;99.90;;;;;;5007679;28;20045;-77
2024/03/29 03:03:01;;;;;;;4.70;1.10;;;8.20;99.90;;;;;;5029947;28;20481;-78
2024/03/29 03:05:26;;;;;;;4.78;0.95;;;8.20;99.90;;;;;;5015271;28;20041;-78
2024/03/29 03:11:00;;;;;;;5.03;1.60;;;8.20;99.90;;;;;;5055182;22;20076;-76
2024/03/29 03:13:29;;;;;;;3.25;0.90;;;8.20;99.90;;;;;;5045868;28;20085;-76
2024/03/29 03:15:55;;;;;;;5.88;1.40;;;8.20;99.90;;;;;;5047450;28;20037;-76
2024/03/29 03:18:21;;;;;;;5.35;1.15;;;8.20;99.90;;;;;;5050195;28;20531;-76
2024/03/29 03:20:54;;;;;;;5.68;1.05;;;8.20;99.90;;;;;;5042751;28;20043;-76
2024/03/29 03:23:19;;;;;;;;;;;8.20;99.90;;;;;;5038128;28;20033;-76
2024/03/29 03:25:58;;;;;;;6.65;1.15;;;8.10;99.90;;;;;;5044299;28;20396;-76
2024/03/29 03:28:25;;;;;;;3.55;0.98;;;8.20;99.90;;;;;;5042926;28;20067;-76
2024/03/29 03:30:51;;;;;;;6.38;1.27;;;8.20;99.90;;;;;;5040314;28;20044;-76
2024/03/29 03:33:17;;;;;;;8.02;1.33;;;8.20;99.90;;;;;;5040406;28;20064;-76
2024/03/29 03:35:43;;;;;;;6.88;1.38;;;8.30;99.90;;;;;;5052318;28;20102;-76
2024/03/29 03:38:09;;;;;;;4.38;0.95;;;8.20;99.90;;;;;;5040562;28;20059;-76
2024/03/29 03:40:36;;;;;;;9.40;1.25;;;8.20;99.90;;;;;;5047575;28;20052;-75
2024/03/29 03:43:02;;;;;;;4.32;1.15;;;8.20;99.90;;;;;;5050019;28;20044;-76
2024/03/29 03:45:28;;;;;;;5.32;1.15;;;8.20;99.90;;;;;;5044688;28;20091;-77
2024/03/29 03:47:54;;;;;;;3.40;1.10;;;8.20;99.90;;;;;;5046915;28;20539;-76
2024/03/29 03:50:19;;;;;;;3.50;1.02;;;8.20;99.90;;;;;;5036747;28;20042;-76
2024/03/29 03:52:45;;;;;;;2.85;1.00;;;8.30;99.90;;;;;;5035711;28;20113;-77
2024/03/29 03:55:10;;;;;;;5.22;1.48;;;8.20;99.90;;;;;;5036912;28;20051;-77
2024/03/29 03:57:36;;;;;;;6.38;1.00;;;8.20;99.90;;;;;;5038842;28;20061;-76
2024/03/29 04:00:04;;;;;;;5.53;1.30;;;8.20;99.90;;;;;;5043795;28;20045;-76
2024/03/29 04:02:29;;;;;;;5.57;1.40;;;8.20;99.90;;;;;;5041609;28;20152;-77
2024/03/29 04:04:55;;;;;;;2.10;1.10;;;8.20;99.90;;;;;;5039256;28;20076;-77
2024/03/29 04:07:20;;;;;;;4.55;1.58;;;8.20;99.90;;;;;;5041963;28;20052;-77
2024/03/29 04:09:50;;;;;;;5.57;1.42;;;8.30;99.90;;;;;;5042041;28;20075;-76
2024/03/29 04:12:15;;;;;;;3.80;1.13;;;8.30;99.90;;;;;;5043038;28;20113;-77
2024/03/29 04:14:41;;;;;;;3.67;1.23;;;8.30;99.90;;;;;;5045640;28;20123;-76
2024/03/29 04:17:06;;;;;;;5.40;1.10;;;8.40;99.90;;;;;;5048607;28;20393;-77
2024/03/29 04:19:32;;;;;;;5.40;1.50;;;8.40;99.90;;;;;;5040207;28;20125;-75
2024/03/29 04:21:58;;;;;;;4.45;1.00;;;8.40;99.90;;;;;;5049828;28;20481;-76
2024/03/29 04:24:23;;;;;;;6.15;1.17;;;8.40;99.90;;;;;;5045418;28;20477;-76
2024/03/29 04:26:49;;;;;;;4.15;1.00;;;8.40;99.90;;;;;;5043115;28;20041;-77
2024/03/29 04:29:15;;;;;;;4.38;1.17;;;8.40;99.90;;;;;;5046682;28;20033;-77
2024/03/29 04:31:41;;;;;;;4.57;1.63;;;8.50;99.90;;;;;;5041776;28;20367;-77
2024/03/29 04:34:06;;;;;;;3.28;0.93;;;8.50;99.90;;;;;;5037221;28;20499;-76
2024/03/29 04:36:32;;;;;;;4.28;1.20;;;8.50;99.90;;;;;;5043504;28;20047;-76
2024/03/29 04:38:57;;;;;;;4.40;1.23;;;8.50;99.90;;;;;;5035290;28;20050;-77
2024/03/29 04:41:23;;;;;;;5.00;1.33;;;8.50;99.90;;;;;;5051518;28;20033;-77
2024/03/29 04:43:50;;;;;;;3.45;1.27;;;8.50;99.90;;;;;;5034648;28;20033;-75
2024/03/29 04:46:16;;;;;;;3.08;1.00;;;8.50;99.90;;;;;;5042685;28;20029;-77
2024/03/29 04:48:42;;;;;;;5.65;1.20;;;8.60;99.90;;;;;;5043159;28;20045;-77
2024/03/29 04:51:11;;;;;;;3.28;1.30;;;8.60;99.90;;;;;;5047868;28;20061;-77
2024/03/29 04:53:40;;;;;;;2.80;1.00;;;8.70;99.90;;;;;;5044530;28;20044;-77
2024/03/29 04:56:07;;;;;;;2.97;1.05;;;8.60;99.90;;;;;;5038830;28;20049;-77
2024/03/29 04:58:32;;;;;;;5.18;0.98;;;8.60;99.90;;;;;;5048889;28;20045;-74
2024/03/29 05:00:58;;;;;;;5.07;1.05;;;8.60;99.90;;;;;;5040568;28;20556;-77
2024/03/29 05:03:24;;;;;;;5.38;1.30;;;8.60;99.90;;;;;;5045320;28;20132;-76
2024/03/29 05:05:51;;;;;;;3.63;0.90;;;8.60;99.90;;;;;;5040052;28;20048;-77
2024/03/29 05:08:18;;;;;;;5.20;1.30;;;8.60;99.90;;;;;;5050181;28;20058;-77
2024/03/29 05:10:44;;;;;;;3.63;1.10;;;8.60;99.90;;;;;;5042124;28;20047;-76
2024/03/29 05:13:10;;;;;;;2.60;1.00;;;8.60;99.90;;;;;;5044370;28;20037;-76
2024/03/29 05:15:35;;;;;;;3.63;1.08;;;8.60;99.90;;;;;;5047573;28;20068;-76
2024/03/29 05:18:01;;;;;;;5.85;1.10;;;8.60;99.90;;;;;;5045444;28;20045;-77
2024/03/29 05:20:26;;;;;;;5.60;1.13;;;8.60;99.90;;;;;;5049835;28;20135;-76
2024/03/29 05:22:52;;;;;;;6.82;1.23;;;8.60;99.90;;;;;;5034086;28;20063;-76
2024/03/29 05:25:17;;;;;;;5.05;1.10;;;8.70;99.90;;;;;;5043004;28;20040;-75
2024/03/29 05:27:43;;;;;;;4.35;1.10;;;8.70;99.90;;;;;;5045550;28;20064;-76
2024/03/29 05:30:13;;;;;;;3.22;0.80;;;8.60;99.90;;;;;;5045557;28;20049;-76
2024/03/29 05:32:39;;;;;;;3.85;1.02;;;8.70;99.90;;;;;;5032812;28;20483;-76
2024/03/29 05:35:05;;;;;;;4.45;1.20;;;8.70;99.90;;;;;;5033823;28;20183;-75
2024/03/29 05:37:30;;;;;;;2.65;0.88;;;8.70;99.90;;;;;;5042344;28;20573;-76
2024/03/29 05:39:59;;;;;;;3.25;1.00;;;8.70;99.90;;;;;;5062554;28;20037;-75
2024/03/29 05:42:29;;;;;;;5.43;0.90;;;9.00;99.90;;;;;;5035651;28;20037;-77
2024/03/29 05:44:55;;;;;;;3.60;0.90;;;8.70;99.90;;;;;;5021932;28;20042;-77
2024/03/29 05:47:21;;;;;;;3.42;0.75;;;8.70;99.90;;;;;;5029590;28;20052;-76
2024/03/29 05:49:47;;;;;;;3.92;1.10;;;8.70;99.90;;;;;;5036670;28;20040;-75
2024/03/29 05:52:13;;;;;;;2.70;1.02;;;8.80;99.90;;;;;;5043344;28;20037;-76
2024/03/29 05:54:43;;;;;;;3.60;0.80;;;8.70;99.90;;;;;;5050217;28;20506;-77
2024/03/29 05:57:09;;;;;;;3.58;0.85;;;8.70;99.90;;;;;;5040233;28;20048;-77
2024/03/29 05:59:35;;;;;;;4.32;1.25;;;8.80;99.90;;;;;;5047991;28;20082;-76
2024/03/29 06:02:01;;;;;;;3.70;0.90;;;8.80;99.90;;;;;;5038982;28;20124;-74
2024/03/29 06:04:32;;;;;;;6.07;0.85;;;8.80;99.90;;;;;;5029663;28;20128;-77
2024/03/29 06:07:04;;;;;;;1.70;0.80;;;8.80;99.90;;;;;;5037903;28;20042;-76
2024/03/29 06:09:33;;;;;;;2.75;0.98;;;8.80;99.90;;;;;;5043270;28;20394;-77
2024/03/29 06:11:58;;;;;;;4.47;0.93;;;8.80;99.90;;;;;;5049310;28;20401;-77
2024/03/29 06:17:24;;;;;;;2.35;0.57;;;8.80;99.90;;;;;;5042876;28;20505;-77
2024/03/29 06:19:56;;;;;;;3.65;0.90;;;8.90;99.90;;;;;;5029392;28;20136;-77
2024/03/29 06:22:23;;;;;;;6.38;0.77;;;8.90;99.90;;;;;;5037758;28;20128;-78
2024/03/29 06:24:51;;;;;;;3.20;0.63;;;8.90;99.90;;;;;;5031873;28;20063;-77
2024/03/29 06:27:18;;;;;;;3.55;0.70;;;8.90;99.90;;;;;;5036056;28;20101;-77
2024/03/29 06:29:44;;;;;;;2.58;0.55;;;8.90;99.90;;;;;;5037943;28;20068;-76
2024/03/29 06:32:10;;;;;;;3.03;1.08;;;8.90;99.90;;;;;;5030522;28;20045;-75
2024/03/29 06:34:35;;;;;;;2.38;0.65;;;8.90;99.90;;;;;;5037837;28;20049;-77
2024/03/29 06:37:02;;;;;;;2.15;0.80;;;8.90;99.90;;;;;;5029519;28;20068;-76
2024/03/29 06:39:27;;;;;;;1.85;0.80;;;8.80;99.90;;;;;;5031286;28;20041;-77
2024/03/29 06:41:53;;;;;;;4.05;0.90;;;8.80;99.90;;;;;;5041080;28;20029;-78
2024/03/29 06:44:19;;;;;;;1.92;0.80;;;8.90;99.90;;;;;;5038793;28;20041;-77
2024/03/29 06:46:45;;;;;;;3.97;1.13;;;8.80;99.90;;;;;;5045836;28;20120;-76
2024/03/29 06:49:11;;;;;;;4.28;0.80;;;8.70;99.90;;;;;;5048294;28;20041;-75
2024/03/29 06:51:36;;;;;;;3.03;1.00;;;8.70;99.90;;;;;;5031929;28;20133;-77
2024/03/29 06:54:03;;;;;;;3.90;1.00;;;8.70;99.90;;;;;;5048716;28;20041;-76
2024/03/29 06:56:29;;;;;;;6.75;1.13;;;8.70;99.90;;;;;;5037182;28;20055;-76
2024/03/29 06:58:55;;;;;;;5.53;1.15;;;8.70;99.90;;;;;;5045691;28;20060;-76
2024/03/29 07:01:21;;;;;;;3.35;1.00;;;8.60;99.90;;;;;;5028765;28;20045;-75
2024/03/29 07:03:47;;;;;;;6.32;1.20;;;8.50;99.90;;;;;;5046603;28;20124;-75
2024/03/29 07:06:12;;;;;;;2.65;0.90;;;8.60;99.90;;;;;;5038279;28;20120;-75
2024/03/29 07:08:39;;;;;;;3.03;1.40;;;8.60;99.90;;;;;;5037213;28;20037;-75
2024/03/29 07:11:04;;;;;;;4.55;1.10;;;8.50;99.90;;;;;;5041318;28;20045;-76
2024/03/29 07:13:31;;;;;;;4.20;1.17;;;8.60;99.90;;;;;;5035851;28;20051;-76
2024/03/29 07:15:58;;;;;;;6.90;0.90;;;8.50;99.90;;;;;;5037030;28;20060;-76
2024/03/29 07:18:23;;;;;;;4.13;1.10;;;8.50;99.90;;;;;;5035526;28;20102;-76
2024/03/29 07:20:50;;;;;;;6.05;1.15;;;8.40;99.90;;;;;;5040973;28;20417;-76
2024/03/29 07:23:16;;;;;;;3.47;1.05;;;8.50;99.90;;;;;;5036329;28;20382;-79
2024/03/29 07:25:44;;;;;;;5.22;1.27;;;8.40;99.90;;;;;;5040781;28;20124;-77
2024/03/29 07:28:10;;;;;;;2.85;1.25;;;8.40;99.90;;;;;;5028442;28;20037;-78
2024/03/29 07:30:38;;;;;;;1.38;1.00;;;8.40;99.90;;;;;;5048684;28;20037;-77
2024/03/29 07:33:04;;;;;;;4.78;1.42;;;8.40;99.90;;;;;;5042102;28;20060;-76
2024/03/29 07:35:30;;;;;;;2.22;1.20;;;8.40;99.90;;;;;;5046843;28;20094;-76
2024/03/29 07:37:57;;;;;;;6.50;1.27;;;8.40;99.90;;;;;;5049310;28;20037;-77
2024/03/29 07:40:22;;;;;;;3.88;1.30;;;8.70;99.90;;;;;;5051894;28;20051;-76
2024/03/29 07:42:48;;;;;;;5.13;1.20;;;8.40;99.90;;;;;;5041575;28;20049;-76
2024/03/29 07:45:13;;;;;;;4.68;1.48;;;8.40;99.90;;;;;;5026768;28;20041;-77
2024/03/29 07:47:39;;;;;;;4.00;1.40;;;8.40;99.90;;;;;;5046989;28;20036;-77
2024/03/29 07:50:06;;;;;;;2.08;1.20;;;8.50;99.90;;;;;;5050442;28;20036;-79
2024/03/29 07:52:33;;;;;;;3.85;1.45;;;8.50;99.90;;;;;;5066514;28;20543;-77
2024/03/29 07:54:59;;;;;;;2.55;1.30;;;8.50;99.90;;;;;;5047438;28;20049;-79
2024/03/29 07:57:25;;;;;;;4.82;1.40;;;8.70;99.90;;;;;;5044528;28;20111;-76
2024/03/29 07:59:51;;;;;;;3.38;1.15;;;8.50;99.90;;;;;;5047758;28;20052;-75
2024/03/29 08:02:16;;;;;;;5.68;1.30;;;8.50;99.90;;;;;;5045037;28;20409;-75
2024/03/29 08:04:44;;;;;;;4.20;1.40;;;8.50;99.90;;;;;;5038019;28;20053;-74
2024/03/29 08:07:11;;;;;;;3.38;1.58;;;8.50;99.90;;;;;;5037768;28;20088;-75
2024/03/29 08:09:39;;;;;;;2.42;1.45;;;8.60;99.90;;;;;;5051816;28;20091;-75
2024/03/29 08:12:05;;;;;;;3.10;1.50;;;8.50;99.90;;;;;;5039274;28;20046;-75
2024/03/29 08:14:33;;;;;;;6.15;1.65;;;8.50;99.90;;;;;;5047597;28;20049;-75
2024/03/29 08:17:04;;;;;;;3.30;1.50;;;8.50;99.90;;;;;;5048693;28;20029;-76
2024/03/29 08:19:30;;;;;;;3.67;1.70;;;8.50;99.90;;;;;;5044309;28;20079;-75
2024/03/29 08:21:56;;;;;;;6.00;1.50;;;8.50;99.90;;;;;;5050106;28;20068;-75
2024/03/29 08:24:21;;;;;;;3.47;1.60;;;8.60;99.90;;;;;;5050033;28;20045;-75
2024/03/29 08:26:47;;;;;;;5.03;1.70;;;8.70;99.90;;;;;;5046506;28;20124;-75
2024/03/29 08:29:13;;;;;;;2.60;1.70;;;8.70;99.90;;;;;;5040064;28;20083;-76
2024/03/29 08:31:38;;;;;;;4.25;1.52;;;8.80;99.90;;;;;;5048530;28;20504;-76
2024/03/29 08:34:04;;;;;;;5.30;1.60;;;8.80;99.90;;;;;;5038231;28;20036;-75
2024/03/29 08:36:30;;;;;;;2.67;1.83;;;9.20;99.90;;;;;;5051649;28;20064;-75
2024/03/29 08:38:55;;;;;;;3.13;1.58;;;9.00;99.90;;;;;;5045630;28;20120;-75
2024/03/29 08:41:22;;;;;;;3.15;1.60;;;9.10;99.90;;;;;;5050940;28;20132;-76
2024/03/29 08:43:47;;;;;;;5.95;1.75;;;9.10;99.90;;;;;;5044481;28;20040;-75
2024/03/29 08:46:13;;;;;;;3.45;1.45;;;9.10;99.90;;;;;;5037451;28;20610;-76
2024/03/29 08:48:42;;;;;;;3.58;1.25;;;9.20;99.90;;;;;;5043802;28;20037;-76
2024/03/29 08:51:08;;;;;;;2.80;1.40;;;9.20;99.90;;;;;;5042699;28;20033;-75
2024/03/29 08:53:33;;;;;;;5.10;1.60;;;9.20;99.90;;;;;;5067725;28;20536;-76
2024/03/29 08:55:59;;;;;;;1.85;1.08;;;9.20;99.90;;;;;;5038842;28;20037;-75
2024/03/29 08:58:25;;;;;;;5.07;1.40;;;9.30;99.90;;;;;;5036075;28;20124;-75
2024/03/29 09:00:55;;;;;;;4.63;1.35;;;9.30;99.90;;;;;;5032581;28;20057;-76
2024/03/29 09:03:24;;;;;;;3.17;1.23;;;9.30;99.90;;;;;;5042293;28;20049;-76
2024/03/29 09:05:51;;;;;;;2.22;1.30;;;9.40;99.90;;;;;;5034552;28;20049;-75
2024/03/29 09:08:20;;;;;;;1.98;1.23;;;9.40;99.90;;;;;;5036741;28;20045;-75
2024/03/29 09:10:46;;;;;;;2.10;1.52;;;9.30;99.90;;;;;;5047502;28;20048;-77
2024/03/29 09:13:12;;;;;;;5.47;1.40;;;9.40;99.90;;;;;;5062959;22;20037;-77
2024/03/29 09:15:38;;;;;;;4.15;1.42;;;9.50;99.90;;;;;;5024625;28;20064;-77
2024/03/29 09:18:16;;;;;;;4.57;1.40;;;9.50;99.90;;;;;;5015672;28;20052;-78
2024/03/29 09:20:42;;;;;;;3.10;1.33;;;9.60;99.90;;;;;;5028642;28;20153;-77
2024/03/29 09:23:08;;;;;;;3.17;1.38;;;9.70;99.90;;;;;;5030058;28;20476;-77
2024/03/29 09:25:34;;;;;;;2.47;1.35;;;9.60;99.90;;;;;;5029206;28;20165;-77
2024/03/29 09:27:59;;;;;;;2.58;1.35;;;9.90;99.90;;;;;;5032911;28;20128;-77
2024/03/29 09:30:26;;;;;;;4.82;1.40;;;9.80;99.90;;;;;;5024835;28;20137;-77
2024/03/29 09:32:52;;;;;;;1.38;0.90;;;9.90;99.90;;;;;;5032238;28;20107;-78
2024/03/29 09:35:19;;;;;;;3.78;1.30;;;10.00;99.90;;;;;;5033301;28;20660;-79
2024/03/29 09:37:45;;;;;;;2.58;1.05;;;10.10;99.90;;;;;;5038271;28;20048;-78
2024/03/29 09:40:11;;;;;;;3.28;1.10;;;10.20;99.90;;;;;;5035419;28;20632;-78
2024/03/29 09:42:38;;;;;;;3.88;1.33;;;10.30;99.90;;;;;;5033073;28;20041;-78
2024/03/29 09:45:05;;;;;;;6.65;1.50;;;10.40;99.90;;;;;;5039915;28;20113;-78
2024/03/29 09:47:32;;;;;;;2.47;1.40;;;10.40;99.90;;;;;;5031024;28;20033;-78
2024/03/29 09:50:07;;;;;;;4.13;1.20;;;10.40;99.90;;;;;;5026875;28;20390;-79
2024/03/29 09:52:33;;;;;;;3.03;1.10;;;10.40;99.90;;;;;;5030774;28;20037;-78
2024/03/29 09:55:00;;;;;;;2.38;1.20;;;10.50;99.90;;;;;;5031994;28;20039;-78
2024/03/29 09:57:30;;;;;;;2.88;1.20;;;10.60;99.90;;;;;;5035230;28;20080;-79
2024/03/29 09:59:57;;;;;;;2.03;0.82;;;10.70;99.90;;;;;;5026516;28;20687;-78
2024/03/29 10:02:28;;;;;;;2.33;1.10;;;11.00;99.90;;;;;;5036778;28;20041;-79
2024/03/29 10:04:57;;;;;;;1.85;0.90;;;11.20;99.90;;;;;;5014445;28;20067;-79
2024/03/29 10:07:23;;;;;;;;;;;11.40;99.90;;;;;;5032090;28;20048;-79
2024/03/29 10:09:50;;;;;;;;;;;11.40;99.90;;;;;;5041756;28;19948;-79
2024/03/29 10:12:17;;;;;;;2.38;0.82;;;11.60;99.90;;;;;;5024644;28;19917;-78
2024/03/29 10:15:14;;;;;;;2.75;1.00;;;11.70;99.90;;;;;;5038192;28;20084;-79
2024/03/29 10:17:44;;;;;;;3.35;1.10;;;11.70;99.90;;;;;;5011739;28;20088;-79
2024/03/29 10:20:10;;;;;;;3.78;1.25;;;11.90;99.90;;;;;;5047173;28;20123;-78
2024/03/29 10:22:40;;;;;;;2.83;1.30;;;11.70;99.90;;;;;;5040485;28;20510;-78
2024/03/29 10:25:06;;;;;;;3.10;1.40;;;11.70;99.90;;;;;;5026219;28;20032;-78
2024/03/29 10:27:32;;;;;;;6.60;1.63;;;11.60;99.90;;;;;;5045576;28;20551;-78
2024/03/29 10:29:59;;;;;;;3.20;1.73;;;11.70;99.90;;;;;;5030043;28;20116;-78
2024/03/29 10:32:25;;;;;;;5.57;2.20;;;11.60;99.90;;;;;;5030748;28;20041;-79
2024/03/29 10:34:51;;;;;;;6.15;1.90;;;11.60;99.90;;;;;;5038875;28;20049;-79
2024/03/29 10:37:23;;;;;;;4.07;2.10;;;11.50;99.90;;;;;;5035790;28;20120;-78
2024/03/29 10:39:50;;;;;;;;;;;11.60;99.90;;;;;;5024287;28;20063;-79
2024/03/29 10:42:16;;;;;;;5.43;2.60;;;11.60;99.90;;;;;;5030060;28;19916;-79
2024/03/29 10:44:42;;;;;;;5.88;2.90;;;11.70;99.90;;;;;;5033765;28;20046;-78
2024/03/29 10:47:14;;;;;;;7.97;2.95;;;11.80;99.90;;;;;;5035771;28;20037;-78
2024/03/29 10:49:41;;;;;;;5.53;2.10;;;11.90;99.90;;;;;;5036555;28;20045;-79
2024/03/29 10:52:09;;;;;;;6.38;2.60;;;11.90;99.90;;;;;;5041997;28;20033;-78
2024/03/29 10:54:36;;;;;;;6.28;3.22;;;11.90;99.90;;;;;;5036901;28;20045;-78
2024/03/29 10:57:12;;;;;;;9.23;3.25;;;12.00;99.90;;;;;;5032890;28;20099;-79
2024/03/29 10:59:48;;;;;;;6.75;3.63;;;12.10;99.90;;;;;;5031338;28;20512;-79
2024/03/29 11:02:34;;;;;;;7.30;4.30;;;12.10;99.90;;;;;;5038687;28;20042;-79
2024/03/29 11:05:05;;;;;;;7.30;4.40;;;12.10;99.90;;;;;;5033476;28;20401;-79
2024/03/29 11:07:34;;;;;;;9.23;5.22;;;12.10;99.90;;;;;;5041832;28;20045;-78
2024/03/29 11:10:02;;;;;;;9.20;4.95;;;12.10;99.90;;;;;;5035724;28;20044;-79
2024/03/29 11:12:30;;;;;;;7.13;4.63;;;12.30;99.90;;;;;;5041631;28;20421;-79
2024/03/29 11:15:04;;;;;;;11.32;4.53;;;12.30;99.90;;;;;;5037049;28;20060;-79
2024/03/29 11:17:33;;;;;;;9.38;4.43;;;12.30;99.90;;;;;;5031820;28;20148;-79
2024/03/29 11:20:00;;;;;;;9.48;4.53;;;12.30;99.90;;;;;;5032707;28;20037;-78
2024/03/29 11:22:27;;;;;;;8.50;4.68;;;12.30;99.90;;;;;;5038413;28;20048;-78
2024/03/29 11:24:53;;;;;;;8.55;4.22;;;12.40;99.90;;;;;;5030546;28;20041;-78
2024/03/29 11:27:22;;;;;;;6.45;4.10;;;12.40;99.90;;;;;;5040591;28;20508;-78
2024/03/29 11:29:49;;;;;;;;;;;12.40;99.90;;;;;;5035662;28;20494;-80
2024/03/29 11:32:15;;;;;;;6.55;3.40;;;12.30;99.90;;;;;;5050788;28;20007;-78
2024/03/29 11:34:45;;;;;;;4.72;2.70;;;12.50;99.90;;;;;;5044922;28;20144;-79
2024/03/29 11:37:12;;;;;;;6.85;2.83;;;12.30;99.90;;;;;;5041937;28;20049;-78
2024/03/29 11:39:38;;;;;;;4.40;2.60;;;12.30;99.90;;;;;;5035447;28;20048;-78
2024/03/29 11:42:04;;;;;;;4.72;2.60;;;12.30;99.90;;;;;;5040883;28;20033;-78
2024/03/29 11:44:29;;;;;;;5.85;2.13;;;12.40;99.90;;;;;;5037093;28;20065;-78
2024/03/29 11:46:58;;;;;;;3.70;2.30;;;12.60;99.90;;;;;;5034364;28;20049;-78
2024/03/29 11:49:24;;;;;;;;;;;12.70;99.90;;;;;;5032816;28;20394;-78
2024/03/29 11:51:50;;;;;;;;;;;12.90;99.90;;;;;;5036389;28;20016;-78
2024/03/29 11:54:15;;;;;;;4.38;1.95;;;13.00;99.90;;;;;;5033340;28;20451;-79
2024/03/29 11:56:42;;;;;;;4.78;2.25;;;13.10;99.90;;;;;;5032897;28;20049;-79
2024/03/29 11:59:09;;;;;;;4.32;1.88;;;13.20;99.90;;;;;;5037293;28;20036;-78
2024/03/29 12:01:39;;;;;;;3.22;1.90;;;13.10;99.90;;;;;;5031384;28;20446;-79
2024/03/29 12:04:04;;;;;;;3.45;1.90;;;13.10;99.90;;;;;;5027844;28;20048;-79
2024/03/29 12:06:30;;;;;;;3.65;1.40;;;13.20;99.90;;;;;;5038668;28;20041;-79
2024/03/29 12:08:57;;;;;;;2.67;1.60;;;13.30;99.90;;;;;;5043456;28;20037;-79
2024/03/29 12:11:22;;;;;;;4.82;1.75;;;13.20;99.90;;;;;;5039297;28;20076;-79
2024/03/29 12:13:48;;;;;;;5.43;1.88;;;13.30;99.90;;;;;;5034357;28;20069;-79
2024/03/29 12:16:15;;;;;;;1.75;1.42;;;13.20;99.90;;;;;;5048804;28;20045;-80
2024/03/29 12:18:40;;;;;;;3.85;1.92;;;13.20;99.90;;;;;;5051895;28;20101;-79
2024/03/29 12:21:07;;;;;;;3.03;1.42;;;13.30;99.90;;;;;;5040233;28;20528;-79
2024/03/29 12:23:32;;;;;;;2.70;1.35;;;13.30;99.90;;;;;;5037940;28;20049;-78
2024/03/29 12:25:58;;;;;;;4.28;1.30;;;13.40;99.90;;;;;;5024167;28;20521;-79
2024/03/29 12:28:25;;;;;;;4.75;2.08;;;13.50;99.90;;;;;;5035423;28;20096;-79
2024/03/29 12:30:52;;;;;;;2.28;1.20;;;13.50;99.90;;;;;;5026509;28;20041;-80
2024/03/29 12:33:19;;;;;;;1.63;0.98;;;13.50;99.90;;;;;;5026940;28;20033;-79
2024/03/29 12:35:52;;;;;;;1.90;1.10;;;13.60;99.90;;;;;;5029826;28;20045;-79
2024/03/29 12:38:18;;;;;;;1.85;1.00;;;13.50;99.90;;;;;;5040511;28;20041;-79
2024/03/29 12:40:48;;;;;;;2.00;1.10;;;13.40;99.90;;;;;;5039241;28;20481;-79
2024/03/29 12:43:22;;;;;;;1.73;1.00;;;13.30;99.90;;;;;;5034809;28;20045;-80
2024/03/29 12:45:50;;;;;;;2.20;1.08;;;13.10;99.90;;;;;;5033859;28;20042;-79
2024/03/29 12:48:23;;;;;;;2.78;1.20;;;12.90;99.90;;;;;;5029517;28;20095;-79
2024/03/29 12:50:49;;;;;;;3.58;1.15;;;12.70;99.90;;;;;;5035790;28;20037;-79
2024/03/29 12:53:16;;;;;;;2.92;1.30;;;12.60;99.90;;;;;;5035322;28;20037;-79
2024/03/29 12:55:46;;;;;;;4.40;1.70;;;12.50;99.90;;;;;;5043596;28;20045;-79
2024/03/29 12:58:18;;;;;;;2.95;1.67;;;12.40;99.90;;;;;;5032722;28;20045;-79